| Date | Time | Temp. (oF) | Dew Point (oF) | Rel. Hum. (%) | Press. (in.) | Wind Dir. | Wind Speed (mph) | Hourly Rainfall (in.) |
|
|---|---|---|---|---|---|---|---|---|---|
| 1 | 04/12 | 00:00 | 46 | 27 | 49 | 30.23 | W | 0 | 0.00 |
| 2 | 04/11 | 23:00 | 48 | 28 | 46 | 30.21 | WSW | 0 | 0.00 |
| 3 | 04/11 | 22:00 | 50 | 28 | 43 | 30.20 | WSW | 4 | 0.00 |
| 4 | 04/11 | 21:00 | 52 | 27 | 39 | 30.16 | WNW | 9 | 0.00 |
| 5 | 04/11 | 20:00 | 54 | 27 | 36 | 30.13 | SW | 4 | 0.00 |
| 6 | 04/11 | 19:00 | 57 | 27 | 33 | 30.09 | W | 8 | 0.00 |
| 7 | 04/11 | 18:00 | 58 | 28 | 32 | 30.07 | WNW | 7 | 0.00 |
| 8 | 04/11 | 17:00 | 58 | 28 | 33 | 30.06 | WNW | 10 | 0.00 |
| 9 | 04/11 | 16:00 | 58 | 29 | 34 | 30.06 | N | 11 | 0.00 |
| 10 | 04/11 | 15:00 | 57 | 30 | 37 | 30.07 | N | 8 | 0.00 |
| 11 | 04/11 | 14:00 | 56 | 30 | 38 | 30.07 | W | 22 | 0.00 |
| 12 | 04/11 | 13:00 | 55 | 31 | 41 | 30.06 | NNE | 19 | 0.00 |
| 13 | 04/11 | 12:00 | 54 | 34 | 47 | 30.06 | W | 4 | 0.00 |
| 14 | 04/11 | 11:00 | 53 | 34 | 49 | 30.06 | WNW | 16 | 0.00 |
| 15 | 04/11 | 10:00 | 52 | 33 | 50 | 30.05 | W | 11 | 0.00 |
| 16 | 04/11 | 09:00 | 51 | 34 | 54 | 30.02 | WNW | 16 | 0.00 |
| 17 | 04/11 | 08:00 | 51 | 37 | 59 | 29.99 | W | 20 | 0.00 |
| 18 | 04/11 | 07:00 | 49 | 36 | 63 | 29.94 | W | 3 | 0.00 |
| 19 | 04/11 | 06:00 | 51 | 36 | 58 | 29.90 | SW | 7 | 0.00 |
| 20 | 04/11 | 05:00 | 52 | 38 | 59 | 29.90 | WSW | 9 | 0.00 |
| 21 | 04/11 | 04:00 | 47 | 40 | 77 | 29.91 | SSW | 0 | 0.00 |
| 22 | 04/11 | 03:00 | 48 | 42 | 81 | 29.90 | S | 2 | 0.00 |
| 23 | 04/11 | 02:00 | 49 | 44 | 83 | 29.90 | SSE | 3 | 0.00 |
| 24 | 04/11 | 01:00 | 49 | 47 | 93 | 29.91 | WSW | 3 | 0.00 |